Aviation Digital Data Service (ADDS)

Output produced by METARs form (1639 UTC 16 June 2019)
found at http://www.aviationweather.gov/metar/data/
 
Forecast for: LDZA (ZAGREB/PLESO , HR)
Text: TAF LDZA 161125Z 1612/1712 05008KT CAVOK TX32/1613Z TN16/1623Z
Forecast period: 1200 UTC 16 June 2019 to 1200 UTC 17 June 2019
Forecast type: FROM: standard forecast or significant change
Winds: from the NE (50 degrees) at 9 MPH (8 knots; 4.1 m/s)
Visibility: 6 or more miles 10+ km)
Ceiling: unknown
Clouds: missing
Weather: no significant weather forecast for this period
Text: TEMPO 1614/1700 35020G30KT 4000 +TSRA SCT035CB BKN050
Forecast period: 1400 UTC 16 June 2019 to 0000 UTC 17 June 2019
Forecast type: TEMPORARY: The following changes expected for less than half the time period
Winds: from the N (350 degrees) at 23 MPH (20 knots; 10.3 m/s)
gusting to 34 MPH (30 knots; 15.4 m/s)
Visibility: 2.49 miles (4.01 km)
Ceiling: 5000 feet AGL
Clouds: scattered clouds at 3500 feet AGL
broken clouds at 5000 feet AGL
Weather: +TSRA  (heavy rain associated with thunderstorm(s))
Text: PROB30
Forecast period: 1700 to 2000 UTC 16 June 2019
Forecast type: TEMPORARY: The following changes expected for less than half the time period
Winds: from the SSW (200 degrees) at 23 MPH (20 knots; 10.3 m/s)
Visibility: 0.93 miles (1.50 km)
Ceiling: 1500 feet AGL
Clouds: broken clouds at 1500 feet AGL
broken clouds at 3500 feet AGL
Weather: +TSGR  (unknown weather)